createdAt,value
2019-04-07T00:02:09.445Z,63.20
2019-04-07T00:07:14.745Z,63.50
2019-04-07T00:12:19.445Z,63.20
2019-04-07T00:17:24.161Z,63.10
2019-04-07T00:22:28.185Z,63.30
2019-04-07T00:27:33.390Z,63.30
2019-04-07T00:32:37.283Z,63.30
2019-04-07T00:37:41.785Z,63.10
2019-04-07T00:42:46.249Z,63.40
2019-04-07T00:47:50.575Z,63.20
2019-04-07T00:52:55.398Z,63.20
2019-04-07T00:58:00.358Z,63.00
2019-04-07T01:03:05.351Z,63.00
2019-04-07T01:08:09.619Z,63.20
2019-04-07T01:13:14.517Z,63.40
2019-04-07T01:18:18.850Z,63.40
2019-04-07T01:23:23.510Z,63.00
2019-04-07T01:28:27.627Z,62.90
2019-04-07T01:33:32.435Z,62.90
2019-04-07T01:38:37.850Z,63.10
2019-04-07T01:43:48.177Z,63.00
2019-04-07T01:49:18.411Z,62.80
2019-04-07T01:54:38.481Z,63.10
2019-04-07T02:00:17.408Z,62.80
2019-04-07T02:05:59.204Z,63.20
2019-04-07T02:11:35.755Z,63.10
2019-04-07T02:16:47.219Z,63.00
2019-04-07T02:22:10.203Z,63.00
2019-04-07T02:27:33.589Z,62.90
2019-04-07T02:32:58.125Z,62.90
2019-04-07T02:38:31.530Z,63.00
2019-04-07T02:43:53.965Z,62.80
2019-04-07T02:49:24.164Z,62.90
2019-04-07T02:54:50.444Z,62.90
2019-04-07T03:00:25.575Z,63.20
2019-04-07T03:05:46.155Z,62.90
2019-04-07T03:11:08.158Z,62.80
2019-04-07T03:16:44.788Z,62.90
2019-04-07T03:21:59.602Z,62.60
2019-04-07T03:27:12.375Z,62.80
2019-04-07T03:32:40.490Z,62.50
2019-04-07T03:38:06.552Z,62.80
2019-04-07T03:43:26.786Z,62.70
2019-04-07T03:48:38.419Z,62.60
2019-04-07T03:54:00.664Z,62.30
2019-04-07T03:59:23.280Z,62.30
2019-04-07T04:04:36.236Z,62.60
2019-04-07T04:09:58.292Z,62.50
2019-04-07T04:15:34.286Z,62.40
2019-04-07T04:20:38.840Z,62.60
2019-04-07T04:25:43.177Z,62.40
2019-04-07T04:30:48.345Z,62.60
2019-04-07T04:35:53.748Z,62.40
2019-04-07T04:40:58.613Z,62.30
2019-04-07T04:46:03.192Z,62.20
2019-04-07T04:51:07.261Z,62.40
2019-04-07T04:56:12.084Z,62.30
2019-04-07T05:01:16.439Z,62.30
2019-04-07T05:06:21.567Z,62.20
2019-04-07T05:11:26.107Z,62.10
2019-04-07T05:16:30.760Z,62.10
2019-04-07T05:21:35.142Z,62.20
2019-04-07T05:26:39.702Z,62.20
2019-04-07T05:31:44.831Z,62.10
2019-04-07T05:36:48.939Z,62.10
2019-04-07T05:41:53.646Z,62.20
2019-04-07T05:46:58.710Z,62.00
2019-04-07T05:52:05.591Z,62.20
2019-04-07T05:57:09.723Z,62.30
2019-04-07T06:02:14.397Z,62.30
2019-04-07T06:07:19.065Z,62.30
2019-04-07T06:12:23.592Z,61.90
2019-04-07T06:17:28.485Z,61.90
2019-04-07T06:22:32.851Z,63.00
2019-04-07T06:27:38.287Z,62.40
2019-04-07T06:32:43.960Z,62.10
2019-04-07T06:37:49.063Z,62.00
2019-04-07T06:42:53.417Z,62.30
2019-04-07T06:48:01.606Z,62.50
2019-04-07T06:53:30.920Z,62.30
2019-04-07T06:58:51.476Z,62.30
2019-04-07T07:04:14.000Z,62.50
2019-04-07T07:09:43.816Z,62.50
2019-04-07T07:15:03.640Z,62.70
2019-04-07T07:20:31.226Z,62.60
2019-04-07T07:25:36.361Z,62.40
2019-04-07T07:30:40.512Z,62.50
2019-04-07T07:35:48.204Z,62.50
2019-04-07T07:40:51.443Z,62.80
2019-04-07T07:45:56.607Z,63.20
2019-04-07T07:51:01.261Z,62.80
2019-04-07T07:56:10.609Z,62.90
2019-04-07T08:01:13.862Z,62.80
2019-04-07T08:06:18.466Z,62.60
2019-04-07T08:11:22.867Z,62.60
2019-04-07T08:16:29.372Z,62.20
2019-04-07T08:21:32.738Z,61.90
2019-04-07T08:26:37.120Z,68.00
2019-04-07T08:31:41.448Z,62.80
2019-04-07T08:36:46.341Z,61.40
2019-04-07T08:41:51.829Z,62.10
2019-04-07T08:46:58.000Z,62.00
2019-04-07T08:52:07.996Z,62.40
2019-04-07T08:57:09.617Z,61.20
2019-04-07T09:02:14.797Z,61.40
2019-04-07T09:07:21.162Z,58.10
2019-04-07T09:12:28.890Z,56.40
2019-04-07T09:17:44.482Z,56.20
2019-04-07T09:23:20.142Z,54.70
2019-04-07T09:29:01.806Z,55.00
2019-04-07T09:34:34.484Z,55.10
2019-04-07T09:40:00.517Z,55.30
2019-04-07T09:45:21.229Z,54.90
2019-04-07T09:50:40.817Z,55.20
2019-04-07T09:56:09.830Z,54.90
2019-04-07T10:01:27.756Z,55.30
2019-04-07T10:06:41.399Z,54.70
2019-04-07T10:12:11.428Z,54.30
2019-04-07T10:17:23.283Z,53.80
2019-04-07T10:22:34.326Z,53.60
2019-04-07T10:27:56.699Z,52.80
2019-04-07T10:33:10.359Z,52.90
2019-04-07T10:38:32.793Z,52.40
2019-04-07T10:43:54.140Z,52.50
2019-04-07T10:49:16.968Z,51.70
2019-04-07T10:54:31.425Z,51.30
2019-04-07T10:59:42.594Z,50.50
2019-04-07T11:04:56.458Z,51.00
2019-04-07T11:10:32.610Z,52.50
2019-04-07T11:15:54.144Z,53.00
2019-04-07T11:21:16.608Z,53.50
2019-04-07T11:26:30.076Z,54.00
2019-04-07T11:31:38.816Z,54.20
2019-04-07T11:37:04.946Z,54.50
2019-04-07T11:42:25.121Z,54.50
2019-04-07T11:47:48.059Z,54.40
2019-04-07T11:52:58.142Z,54.80
2019-04-07T11:58:22.976Z,54.90
2019-04-07T12:04:00.051Z,54.40
2019-04-07T12:09:24.498Z,54.80
2019-04-07T12:14:56.718Z,55.00
2019-04-07T12:20:14.167Z,55.00
2019-04-07T12:25:42.892Z,54.50
2019-04-07T12:30:56.908Z,54.80
2019-04-07T12:36:20.572Z,55.20
2019-04-07T12:41:35.763Z,54.40
2019-04-07T12:47:07.094Z,54.40
2019-04-07T12:52:42.319Z,54.40
2019-04-07T12:58:09.599Z,54.30
2019-04-07T13:03:20.008Z,54.40
2019-04-07T13:08:56.018Z,54.40
2019-04-07T13:14:23.377Z,54.30
2019-04-07T13:19:53.444Z,54.10
2019-04-07T13:25:22.821Z,54.00
2019-04-07T13:30:33.624Z,53.90
2019-04-07T13:35:56.304Z,54.00
2019-04-07T13:41:18.832Z,54.00
2019-04-07T13:46:37.360Z,53.80
2019-04-07T13:52:06.435Z,54.60
2019-04-07T13:57:27.609Z,54.00
2019-04-07T14:02:50.052Z,53.80
2019-04-07T14:08:12.160Z,54.10
2019-04-07T14:13:40.741Z,53.80
2019-04-07T14:19:03.690Z,54.30
2019-04-07T14:24:25.809Z,53.80
2019-04-07T14:29:54.925Z,54.30
2019-04-07T14:35:36.990Z,53.50
2019-04-07T14:40:51.160Z,53.90
2019-04-07T14:46:14.426Z,53.70
2019-04-07T14:51:36.460Z,54.10
2019-04-07T14:56:59.378Z,53.40
2019-04-07T15:02:04.212Z,53.40
2019-04-07T15:07:21.683Z,52.90
2019-04-07T15:12:32.080Z,53.00
2019-04-07T15:17:37.091Z,53.30
2019-04-07T15:22:43.983Z,53.40
2019-04-07T15:27:47.715Z,52.60
2019-04-07T15:32:52.196Z,52.80
2019-04-07T15:37:57.083Z,53.00
2019-04-07T15:43:04.373Z,53.40
2019-04-07T15:48:08.281Z,52.50
2019-04-07T15:53:14.966Z,52.70
2019-04-07T15:58:18.853Z,52.50
2019-04-07T16:03:23.710Z,52.80
2019-04-07T16:08:29.524Z,53.20
2019-04-07T16:13:34.266Z,53.40
2019-04-07T16:18:40.891Z,53.40
2019-04-07T16:23:48.636Z,53.50
2019-04-07T16:28:51.987Z,53.80
2019-04-07T16:33:56.742Z,53.10
2019-04-07T16:39:02.319Z,53.20
2019-04-07T16:44:09.272Z,53.30
2019-04-07T16:49:14.072Z,53.40
2019-04-07T16:54:19.938Z,53.70
2019-04-07T16:59:25.319Z,53.40
2019-04-07T17:04:30.055Z,53.50
2019-04-07T17:09:36.362Z,53.30
2019-04-07T17:14:40.589Z,53.00
2019-04-07T17:19:45.740Z,53.20
2019-04-07T17:24:50.567Z,53.40
2019-04-07T17:29:55.452Z,53.30
2019-04-07T17:35:00.816Z,53.50
2019-04-07T17:40:13.040Z,53.70
2019-04-07T17:45:35.458Z,53.90
2019-04-07T17:51:09.085Z,53.90
2019-04-07T17:56:32.298Z,54.30
2019-04-07T18:01:59.274Z,54.40
2019-04-07T18:07:30.034Z,54.50
2019-04-07T18:13:02.368Z,54.80
2019-04-07T18:18:26.348Z,55.20
2019-04-07T18:23:56.587Z,55.10
2019-04-07T18:29:29.982Z,55.30
2019-04-07T18:34:49.652Z,55.30
2019-04-07T18:40:27.317Z,55.50
2019-04-07T18:45:54.791Z,55.30
2019-04-07T18:51:25.230Z,55.30
2019-04-07T18:57:04.043Z,55.40
2019-04-07T19:02:26.906Z,55.40
2019-04-07T19:08:09.305Z,55.40
2019-04-07T19:13:24.714Z,55.50
2019-04-07T19:18:32.770Z,55.40
2019-04-07T19:23:47.223Z,55.50
2019-04-07T19:29:11.870Z,55.40
2019-04-07T19:34:44.955Z,55.80
2019-04-07T19:40:04.256Z,55.80
2019-04-07T19:45:30.905Z,55.80
2019-04-07T19:50:57.244Z,55.80
2019-04-07T19:56:35.191Z,55.90
2019-04-07T20:01:59.020Z,56.20
2019-04-07T20:07:13.641Z,56.10
2019-04-07T20:12:25.023Z,56.40
2019-04-07T20:18:00.679Z,56.20
2019-04-07T20:23:28.490Z,56.50
2019-04-07T20:28:37.871Z,56.80
2019-04-07T20:34:04.607Z,56.90
2019-04-07T20:39:12.746Z,57.00
2019-04-07T20:44:57.813Z,57.20
2019-04-07T20:50:12.682Z,57.30
2019-04-07T20:55:37.343Z,57.30
2019-04-07T21:01:17.717Z,57.70
2019-04-07T21:06:30.118Z,57.70
2019-04-07T21:12:06.318Z,57.80
2019-04-07T21:17:19.055Z,57.60
2019-04-07T21:22:43.262Z,58.10
2019-04-07T21:28:06.081Z,57.70
2019-04-07T21:33:25.978Z,58.20
2019-04-07T21:38:39.197Z,58.10
2019-04-07T21:43:58.255Z,58.30
2019-04-07T21:49:22.057Z,57.70
2019-04-07T21:54:48.267Z,58.30
2019-04-07T22:00:19.379Z,57.80
2019-04-07T22:05:39.129Z,57.90
2019-04-07T22:10:43.596Z,58.40
2019-04-07T22:15:54.244Z,57.80
2019-04-07T22:20:55.542Z,58.10
2019-04-07T22:25:59.776Z,58.20
2019-04-07T22:31:04.030Z,58.40
2019-04-07T22:36:13.894Z,58.50
2019-04-07T22:41:14.548Z,58.80
2019-04-07T22:46:24.283Z,58.70
2019-04-07T22:51:25.455Z,58.40
2019-04-07T22:56:30.988Z,58.70
2019-04-07T23:01:35.451Z,59.00
2019-04-07T23:06:40.391Z,58.60
2019-04-07T23:11:46.099Z,59.50
2019-04-07T23:16:50.171Z,59.20
2019-04-07T23:21:55.411Z,59.10
2019-04-07T23:26:59.561Z,58.70
2019-04-07T23:32:04.600Z,58.80
2019-04-07T23:37:10.087Z,58.90
2019-04-07T23:42:14.572Z,59.00
2019-04-07T23:47:19.439Z,59.00
2019-04-07T23:52:23.522Z,58.80
2019-04-07T23:57:27.859Z,58.80
